createdAt,value
2023-03-21T00:00:44.353Z,93486.72
2023-03-21T00:03:11.476Z,93486.22
2023-03-21T00:05:41.346Z,93486.41
2023-03-21T00:08:08.742Z,93482.69
2023-03-21T00:10:42.686Z,93479.81
2023-03-21T00:13:13.397Z,93489.47
2023-03-21T00:16:03.777Z,93489.28
2023-03-21T00:18:32.593Z,93481.56
2023-03-21T00:21:25.638Z,93484.94
2023-03-21T00:23:47.821Z,93483.03
2023-03-21T00:26:15.499Z,93480.16
2023-03-21T00:28:43.916Z,93480.16
2023-03-21T00:31:11.479Z,93481.28
2023-03-21T00:33:41.748Z,93486.91
2023-03-21T00:36:10.665Z,93486.41
2023-03-21T00:38:38.209Z,93490.91
2023-03-21T00:41:21.024Z,93493.00
2023-03-21T00:43:55.782Z,93492.22
2023-03-21T00:46:25.192Z,93487.88
2023-03-21T00:48:52.355Z,93490.44
2023-03-21T00:51:26.366Z,93488.66
2023-03-21T00:53:55.005Z,93479.53
2023-03-21T00:56:22.437Z,93474.38
2023-03-21T00:58:51.299Z,93474.88
2023-03-21T01:01:19.645Z,93476.00
2023-03-21T01:03:51.091Z,93471.00
2023-03-21T01:06:19.658Z,93472.75
2023-03-21T01:08:53.221Z,93477.34
2023-03-21T01:11:24.064Z,93473.69
2023-03-21T01:13:56.009Z,93467.75
2023-03-21T01:16:30.470Z,93469.16
2023-03-21T01:18:57.490Z,93462.25
2023-03-21T01:21:24.528Z,93458.38
2023-03-21T01:23:51.893Z,93464.94
2023-03-21T01:26:19.003Z,93475.78
2023-03-21T01:28:46.454Z,93469.50
2023-03-21T01:31:14.926Z,93469.59
2023-03-21T01:33:43.661Z,93475.16
2023-03-21T01:36:16.104Z,93474.66
2023-03-21T01:38:43.651Z,93471.75
2023-03-21T01:41:20.477Z,93473.03
2023-03-21T01:43:48.777Z,93469.34
2023-03-21T01:46:44.070Z,93480.19
2023-03-21T01:49:46.058Z,93480.78
2023-03-21T01:52:35.994Z,93470.13
2023-03-21T01:55:07.177Z,93470.63
2023-03-21T01:57:58.501Z,93462.63
2023-03-21T02:00:36.602Z,93468.09
2023-03-21T02:03:29.483Z,93468.41
2023-03-21T02:06:13.917Z,93468.06
2023-03-21T02:08:43.933Z,93468.34
2023-03-21T02:11:14.663Z,93464.03
2023-03-21T02:13:43.588Z,93455.53
2023-03-21T02:16:18.150Z,93455.25
2023-03-21T02:18:53.594Z,93468.97
2023-03-21T02:21:50.874Z,93468.81
2023-03-21T02:25:06.045Z,93460.13
2023-03-21T02:27:37.664Z,93450.47
2023-03-21T02:30:51.157Z,93452.59
2023-03-21T02:33:41.861Z,93458.56
2023-03-21T02:36:18.297Z,93448.56
2023-03-21T02:38:53.123Z,93445.28
2023-03-21T02:41:25.419Z,93442.53
2023-03-21T02:43:56.490Z,93456.59
2023-03-21T02:46:33.468Z,93446.72
2023-03-21T02:49:10.652Z,93448.69
2023-03-21T02:51:38.162Z,93438.66
2023-03-21T02:54:28.124Z,93447.13
2023-03-21T02:56:59.530Z,93437.84
2023-03-21T02:59:27.826Z,93437.06
2023-03-21T03:01:57.358Z,93437.34
2023-03-21T03:04:28.973Z,93442.09
2023-03-21T03:07:17.901Z,93441.38
2023-03-21T03:10:08.584Z,93449.19
2023-03-21T03:12:41.729Z,93441.38
2023-03-21T03:15:17.863Z,93448.59
2023-03-21T03:17:51.700Z,93453.56
2023-03-21T03:20:39.871Z,93452.69
2023-03-21T03:23:14.750Z,93449.63
2023-03-21T03:25:44.654Z,93449.34
2023-03-21T03:28:16.397Z,93448.69
2023-03-21T03:30:57.445Z,93453.88
2023-03-21T03:33:30.996Z,93456.31
2023-03-21T03:36:05.485Z,93462.06
2023-03-21T03:38:36.146Z,93459.81
2023-03-21T03:41:09.724Z,93461.44
2023-03-21T03:43:48.640Z,93458.59
2023-03-21T03:46:18.650Z,93461.66
2023-03-21T03:48:49.457Z,93464.44
2023-03-21T03:51:21.670Z,93467.44
2023-03-21T03:54:13.402Z,93460.78
2023-03-21T03:56:42.662Z,93462.16
2023-03-21T03:59:09.704Z,93458.09
2023-03-21T04:01:50.682Z,93452.81
2023-03-21T04:04:18.145Z,93451.06
2023-03-21T04:06:51.744Z,93443.03
2023-03-21T04:09:28.946Z,93446.84
2023-03-21T04:12:06.177Z,93453.25
2023-03-21T04:14:44.070Z,93446.47
2023-03-21T04:17:12.976Z,93446.69
2023-03-21T04:19:40.059Z,93438.56
2023-03-21T04:22:07.367Z,93444.13
2023-03-21T04:24:39.545Z,93438.72
2023-03-21T04:27:08.040Z,93439.47
2023-03-21T04:29:56.079Z,93436.97
2023-03-21T04:32:39.640Z,93434.50
2023-03-21T04:35:13.916Z,93446.59
2023-03-21T04:37:41.672Z,93447.41
2023-03-21T04:40:17.890Z,93443.59
2023-03-21T04:42:47.823Z,93454.00
2023-03-21T04:45:15.992Z,93451.19
2023-03-21T04:47:45.494Z,93448.22
2023-03-21T04:50:13.784Z,93452.50
2023-03-21T04:52:40.814Z,93456.53
2023-03-21T04:55:10.382Z,93452.31
2023-03-21T04:57:39.149Z,93453.75
2023-03-21T05:00:14.561Z,93452.81
2023-03-21T05:02:41.660Z,93453.75
2023-03-21T05:05:11.392Z,93459.25
2023-03-21T05:07:38.712Z,93451.50
2023-03-21T05:10:07.535Z,93452.97
2023-03-21T05:12:34.894Z,93451.44
2023-03-21T05:15:01.862Z,93448.88
2023-03-21T05:17:30.692Z,93466.69
2023-03-21T05:19:58.663Z,93467.06
2023-03-21T05:22:26.871Z,93468.06
2023-03-21T05:24:55.390Z,93470.06
2023-03-21T05:27:35.190Z,93471.66
2023-03-21T05:30:09.526Z,93477.78
2023-03-21T05:32:38.387Z,93472.75
2023-03-21T05:35:09.784Z,93468.97
2023-03-21T05:37:38.468Z,93470.94
2023-03-21T05:40:08.351Z,93468.56
2023-03-21T05:42:37.426Z,93465.44
2023-03-21T05:45:13.336Z,93459.91
2023-03-21T05:47:41.806Z,93467.41
2023-03-21T05:50:11.313Z,93465.25
2023-03-21T05:52:40.380Z,93461.47
2023-03-21T05:55:12.386Z,93450.66
2023-03-21T05:57:41.007Z,93444.53
2023-03-21T06:00:22.268Z,93443.94
2023-03-21T06:03:10.398Z,93443.00
2023-03-21T06:06:07.867Z,93438.13
2023-03-21T06:08:43.230Z,93436.50
2023-03-21T06:11:20.375Z,93433.63
2023-03-21T06:13:48.001Z,93427.38
2023-03-21T06:16:14.988Z,93422.09
2023-03-21T06:18:43.308Z,93428.19
2023-03-21T06:21:33.218Z,93425.41
2023-03-21T06:24:00.552Z,93423.28
2023-03-21T06:26:28.781Z,93423.41
2023-03-21T06:28:56.364Z,93422.72
2023-03-21T06:31:25.222Z,93418.31
2023-03-21T06:33:55.962Z,93415.31
2023-03-21T06:36:22.805Z,93416.00
2023-03-21T06:38:49.771Z,93419.47
2023-03-21T06:41:17.149Z,93424.16
2023-03-21T06:43:51.796Z,93430.31
2023-03-21T06:46:21.194Z,93439.69
2023-03-21T06:48:48.789Z,93439.13
2023-03-21T06:51:17.177Z,93436.25
2023-03-21T06:53:57.566Z,93436.38
2023-03-21T06:56:31.277Z,93437.94
2023-03-21T06:58:58.318Z,93442.13
2023-03-21T07:02:00.363Z,93440.72
2023-03-21T07:04:28.485Z,93443.47
2023-03-21T07:06:58.110Z,93446.91
2023-03-21T07:09:28.247Z,93447.84
2023-03-21T07:11:58.952Z,93446.94
2023-03-21T07:14:35.768Z,93439.91
2023-03-21T07:17:02.755Z,93440.78
2023-03-21T07:19:30.021Z,93451.19
2023-03-21T07:21:58.704Z,93451.69
2023-03-21T07:24:26.256Z,93449.75
2023-03-21T07:26:53.315Z,93448.03
2023-03-21T07:29:22.751Z,93459.84
2023-03-21T07:31:49.813Z,93450.75
2023-03-21T07:34:17.782Z,93452.38
2023-03-21T07:36:45.523Z,93449.06
2023-03-21T07:39:14.503Z,93448.34
2023-03-21T07:41:41.558Z,93442.44
2023-03-21T07:44:23.384Z,93441.06
2023-03-21T07:46:59.747Z,93439.34
2023-03-21T07:49:27.001Z,93441.78
2023-03-21T07:51:53.934Z,93450.97
2023-03-21T07:54:23.204Z,93451.25
2023-03-21T07:56:50.518Z,93454.28
2023-03-21T07:59:17.633Z,93453.72
2023-03-21T08:01:44.496Z,93448.97
2023-03-21T08:04:11.533Z,93456.75
2023-03-21T08:06:38.620Z,93446.03
2023-03-21T08:09:05.616Z,93455.78
2023-03-21T08:11:34.205Z,93461.22
2023-03-21T08:14:01.592Z,93451.09
2023-03-21T08:16:29.779Z,93453.50
2023-03-21T08:18:56.526Z,93452.13
2023-03-21T08:21:23.440Z,93446.00
2023-03-21T08:23:50.404Z,93446.41
2023-03-21T08:26:18.549Z,93441.66
2023-03-21T08:28:46.939Z,93437.25
2023-03-21T08:31:14.625Z,93433.50
2023-03-21T08:33:41.596Z,93440.31
2023-03-21T08:36:10.021Z,93444.91
2023-03-21T08:38:37.139Z,93440.91
2023-03-21T08:41:04.218Z,93441.72
2023-03-21T08:43:31.193Z,93439.38
2023-03-21T08:45:59.617Z,93441.16
2023-03-21T08:48:26.685Z,93435.97
2023-03-21T08:50:53.699Z,93433.59
2023-03-21T08:53:20.684Z,93436.19
2023-03-21T08:55:49.427Z,93433.63
2023-03-21T08:58:17.417Z,93430.63
2023-03-21T09:00:44.342Z,93436.00
2023-03-21T09:03:12.802Z,93426.22
2023-03-21T09:05:40.131Z,93431.59
2023-03-21T09:08:07.216Z,93425.81
2023-03-21T09:10:34.231Z,93424.03
2023-03-21T09:13:01.448Z,93423.81
2023-03-21T09:15:29.619Z,93426.22
2023-03-21T09:17:58.678Z,93425.22
2023-03-21T09:20:31.342Z,93420.22
2023-03-21T09:22:59.274Z,93404.22
2023-03-21T09:25:29.599Z,93403.03
2023-03-21T09:27:58.149Z,93410.78
2023-03-21T09:30:26.504Z,93402.41
2023-03-21T09:32:55.781Z,93410.59
2023-03-21T09:35:24.382Z,93399.59
2023-03-21T09:37:53.299Z,93394.97
2023-03-21T09:40:21.670Z,93386.53
2023-03-21T09:42:57.004Z,93379.53
2023-03-21T09:45:30.266Z,93379.66
2023-03-21T09:47:58.423Z,93376.66
2023-03-21T09:50:31.709Z,93384.00
2023-03-21T09:53:01.816Z,93372.09
2023-03-21T09:55:34.751Z,93375.38
2023-03-21T09:58:05.860Z,93378.13
2023-03-21T10:00:37.415Z,93378.31
2023-03-21T10:03:07.537Z,93373.97
2023-03-21T10:05:35.726Z,93378.31
2023-03-21T10:08:07.347Z,93369.06
2023-03-21T10:10:37.832Z,93364.44
2023-03-21T10:13:06.148Z,93357.63
2023-03-21T10:15:33.256Z,93354.69
2023-03-21T10:18:01.846Z,93352.84
2023-03-21T10:20:31.651Z,93345.41
2023-03-21T10:23:01.120Z,93347.44
2023-03-21T10:25:32.786Z,93346.56
2023-03-21T10:28:01.407Z,93345.34
2023-03-21T10:30:37.842Z,93340.28
2023-03-21T10:33:09.745Z,93347.88
2023-03-21T10:35:37.811Z,93350.59
2023-03-21T10:38:06.363Z,93353.88
2023-03-21T10:40:35.578Z,93355.81
2023-03-21T10:43:21.975Z,93356.50
2023-03-21T10:45:49.294Z,93351.94
2023-03-21T10:48:17.656Z,93350.69
2023-03-21T10:50:47.809Z,93346.25
2023-03-21T10:53:18.702Z,93342.06
2023-03-21T10:55:49.298Z,93339.91
2023-03-21T10:58:19.037Z,93341.50
2023-03-21T11:00:46.685Z,93328.34
2023-03-21T11:03:21.856Z,93329.25
2023-03-21T11:05:53.200Z,93331.53
2023-03-21T11:08:20.419Z,93327.09
2023-03-21T11:11:01.307Z,93326.06
2023-03-21T11:13:34.444Z,93327.53
2023-03-21T11:16:06.883Z,93330.03
2023-03-21T11:18:33.816Z,93327.88
2023-03-21T11:21:04.303Z,93325.59
2023-03-21T11:23:33.575Z,93312.66
2023-03-21T11:26:02.912Z,93306.97
2023-03-21T11:28:35.807Z,93308.91
2023-03-21T11:31:03.652Z,93308.66
2023-03-21T11:33:32.098Z,93299.69
2023-03-21T11:36:04.490Z,93296.84
2023-03-21T11:38:34.425Z,93285.16
2023-03-21T11:41:03.187Z,93289.03
2023-03-21T11:43:32.059Z,93288.03
2023-03-21T11:46:01.238Z,93287.22
2023-03-21T11:48:28.920Z,93283.47
2023-03-21T11:50:59.540Z,93291.53
2023-03-21T11:53:35.519Z,93282.00
2023-03-21T11:56:16.418Z,93284.06
2023-03-21T11:58:52.492Z,93288.59
2023-03-21T12:01:26.503Z,93282.34
2023-03-21T12:04:02.100Z,93274.16
2023-03-21T12:06:34.307Z,93261.25
2023-03-21T12:09:08.606Z,93267.16
2023-03-21T12:11:39.338Z,93262.97
2023-03-21T12:14:13.808Z,93256.94
2023-03-21T12:16:52.369Z,93254.34
2023-03-21T12:19:38.057Z,93259.34
2023-03-21T12:22:11.300Z,93251.50
2023-03-21T12:24:42.649Z,93251.88
2023-03-21T12:27:16.675Z,93244.72
2023-03-21T12:29:57.054Z,93242.81
2023-03-21T12:32:35.727Z,93243.81
2023-03-21T12:35:16.702Z,93243.72
2023-03-21T12:37:53.804Z,93242.44
2023-03-21T12:40:31.196Z,93228.59
2023-03-21T12:43:23.717Z,93239.41
2023-03-21T12:45:54.046Z,93233.81
2023-03-21T12:48:26.243Z,93227.13
2023-03-21T12:50:54.997Z,93234.63
2023-03-21T12:53:35.739Z,93229.19
2023-03-21T12:56:05.991Z,93218.41
2023-03-21T12:58:41.048Z,93215.44
2023-03-21T13:01:09.861Z,93212.94
2023-03-21T13:03:42.148Z,93208.75
2023-03-21T13:06:11.202Z,93205.59
2023-03-21T13:08:44.550Z,93206.06
2023-03-21T13:11:14.545Z,93210.03
2023-03-21T13:13:46.543Z,93205.34
2023-03-21T13:16:15.581Z,93204.88
2023-03-21T13:18:53.925Z,93210.91
2023-03-21T13:21:28.925Z,93210.50
2023-03-21T13:24:00.562Z,93208.34
2023-03-21T13:26:38.112Z,93201.84
2023-03-21T13:29:15.057Z,93201.53
2023-03-21T13:31:52.016Z,93198.81
2023-03-21T13:34:22.603Z,93189.63
2023-03-21T13:36:51.375Z,93191.28
2023-03-21T13:39:20.280Z,93188.66
2023-03-21T13:41:49.202Z,93185.09
2023-03-21T13:44:33.872Z,93184.28
2023-03-21T13:47:02.208Z,93187.78
2023-03-21T13:49:32.491Z,93182.69
2023-03-21T13:52:00.667Z,93183.25
2023-03-21T13:54:51.134Z,93181.97
2023-03-21T13:57:38.211Z,93178.66
2023-03-21T14:00:19.950Z,93176.16
2023-03-21T14:02:54.425Z,93176.91
2023-03-21T14:05:23.116Z,93181.09
2023-03-21T14:07:54.776Z,93179.72
2023-03-21T14:10:28.759Z,93180.19
2023-03-21T14:12:55.746Z,93181.03
2023-03-21T14:15:26.064Z,93171.75
2023-03-21T14:17:54.676Z,93172.41
2023-03-21T14:20:23.296Z,93176.00
2023-03-21T14:22:50.587Z,93165.03
2023-03-21T14:25:19.207Z,93170.53
2023-03-21T14:27:49.126Z,93171.50
2023-03-21T14:30:22.124Z,93169.19
2023-03-21T14:32:50.821Z,93172.09
2023-03-21T14:35:18.009Z,93175.78
2023-03-21T14:37:47.680Z,93170.09
2023-03-21T14:40:21.572Z,93173.31
2023-03-21T14:42:50.427Z,93164.84
2023-03-21T14:45:20.873Z,93168.09
2023-03-21T14:48:01.400Z,93172.97
2023-03-21T14:50:36.770Z,93166.06
2023-03-21T14:53:03.945Z,93165.13
2023-03-21T14:55:31.952Z,93163.81
2023-03-21T14:57:58.873Z,93173.81
2023-03-21T15:00:27.521Z,93173.09
2023-03-21T15:02:55.463Z,93168.72
2023-03-21T15:05:27.258Z,93172.97
2023-03-21T15:07:56.596Z,93167.09
2023-03-21T15:10:25.097Z,93164.34
2023-03-21T15:12:54.075Z,93171.59
2023-03-21T15:15:23.869Z,93172.41
2023-03-21T15:17:53.827Z,93181.06
2023-03-21T15:20:24.896Z,93181.69
2023-03-21T15:22:54.755Z,93181.34
2023-03-21T15:25:24.383Z,93182.78
2023-03-21T15:27:51.673Z,93180.66
2023-03-21T15:30:20.759Z,93179.13
2023-03-21T15:32:48.621Z,93178.94
2023-03-21T15:35:17.785Z,93178.78
2023-03-21T15:37:53.306Z,93177.88
2023-03-21T15:40:22.868Z,93181.69
2023-03-21T15:42:49.777Z,93182.38
2023-03-21T15:45:21.506Z,93194.19
2023-03-21T15:47:54.176Z,93189.44
2023-03-21T15:50:27.877Z,93197.72
2023-03-21T15:52:59.031Z,93200.47
2023-03-21T15:55:29.314Z,93211.47
2023-03-21T15:58:01.092Z,93212.78
2023-03-21T16:00:34.285Z,93209.72
2023-03-21T16:03:04.993Z,93216.72
2023-03-21T16:05:33.254Z,93215.53
2023-03-21T16:08:04.523Z,93211.50
2023-03-21T16:10:34.443Z,93213.75
2023-03-21T16:13:01.452Z,93215.50
2023-03-21T16:15:28.707Z,93219.06
2023-03-21T16:17:57.619Z,93217.91
2023-03-21T16:20:26.192Z,93229.34
2023-03-21T16:22:53.547Z,93225.88
2023-03-21T16:25:22.039Z,93229.69
2023-03-21T16:27:49.240Z,93216.41
2023-03-21T16:30:19.982Z,93212.66
2023-03-21T16:32:47.014Z,93207.91
2023-03-21T16:35:14.538Z,93211.13
2023-03-21T16:37:41.679Z,93210.22
2023-03-21T16:40:17.617Z,93202.97
2023-03-21T16:42:46.042Z,93200.56
2023-03-21T16:45:12.975Z,93196.13
2023-03-21T16:47:40.287Z,93194.25
2023-03-21T16:50:22.242Z,93192.34
2023-03-21T16:52:49.432Z,93190.03
2023-03-21T16:55:16.780Z,93193.41
2023-03-21T16:57:45.687Z,93193.03
2023-03-21T17:00:16.543Z,93198.34
2023-03-21T17:02:43.510Z,93199.59
2023-03-21T17:05:11.688Z,93203.50
2023-03-21T17:07:38.884Z,93206.88
2023-03-21T17:10:16.445Z,93205.06
2023-03-21T17:12:44.906Z,93203.88
2023-03-21T17:15:12.274Z,93213.47
2023-03-21T17:17:39.538Z,93213.91
2023-03-21T17:20:22.424Z,93214.00
2023-03-21T17:22:49.729Z,93213.81
2023-03-21T17:25:17.731Z,93218.53
2023-03-21T17:27:46.677Z,93222.44
2023-03-21T17:30:25.439Z,93228.56
2023-03-21T17:32:53.184Z,93219.16
2023-03-21T17:35:21.002Z,93224.84
2023-03-21T17:37:50.599Z,93228.22
2023-03-21T17:40:20.643Z,93240.97
2023-03-21T17:42:49.430Z,93241.16
2023-03-21T17:45:17.261Z,93242.75
2023-03-21T17:47:44.336Z,93244.09
2023-03-21T17:50:16.732Z,93252.34
2023-03-21T17:52:43.796Z,93255.97
2023-03-21T17:55:11.146Z,93252.91
2023-03-21T17:57:38.322Z,93254.34
2023-03-21T18:00:12.347Z,93261.72
2023-03-21T18:02:40.014Z,93266.25
2023-03-21T18:05:08.668Z,93269.06
2023-03-21T18:08:05.925Z,93267.38
2023-03-21T18:10:25.259Z,93266.31
2023-03-21T18:12:56.414Z,93273.41
2023-03-21T18:15:30.228Z,93267.31
2023-03-21T18:17:58.165Z,93271.38
2023-03-21T18:20:44.568Z,93268.03
2023-03-21T18:23:14.702Z,93269.56
2023-03-21T18:25:41.907Z,93264.66
2023-03-21T18:28:11.920Z,93261.44
2023-03-21T18:31:05.186Z,93265.94
2023-03-21T18:33:28.520Z,93265.19
2023-03-21T18:35:59.772Z,93266.88
2023-03-21T18:38:27.568Z,93267.88
2023-03-21T18:40:54.973Z,93266.16
2023-03-21T18:46:10.713Z,93263.44
2023-03-21T18:48:37.465Z,93257.81
2023-03-21T18:51:05.212Z,93255.75
2023-03-21T18:53:32.665Z,93258.00
2023-03-21T18:55:59.617Z,93256.41
2023-03-21T18:58:26.571Z,93259.44
2023-03-21T19:00:54.064Z,93258.47
2023-03-21T19:03:35.411Z,93266.47
2023-03-21T19:06:05.009Z,93269.59
2023-03-21T19:08:34.064Z,93271.03
2023-03-21T19:11:04.350Z,93280.19
2023-03-21T19:13:33.429Z,93280.47
2023-03-21T19:16:02.673Z,93272.75
2023-03-21T19:21:19.352Z,93275.66
2023-03-21T19:26:34.088Z,93287.22
2023-03-21T19:29:01.390Z,93283.03
2023-03-21T19:31:28.461Z,93278.84
2023-03-21T19:33:57.051Z,93287.09
2023-03-21T19:36:23.876Z,93287.25
2023-03-21T19:38:51.043Z,93279.38
2023-03-21T19:41:18.823Z,93284.22
2023-03-21T19:43:54.186Z,93286.50
2023-03-21T19:46:24.838Z,93281.88
2023-03-21T19:48:56.102Z,93288.91
2023-03-21T19:51:29.354Z,93297.66
2023-03-21T19:53:57.147Z,93280.16
2023-03-21T19:56:27.091Z,93281.94
2023-03-21T19:58:54.701Z,93282.59
2023-03-21T20:01:21.949Z,93285.84
2023-03-21T20:03:49.030Z,93284.91
2023-03-21T20:06:16.787Z,93283.97
2023-03-21T20:11:32.162Z,93280.63
2023-03-21T20:13:59.930Z,93277.88
2023-03-21T20:16:34.232Z,93282.84
2023-03-21T20:19:02.336Z,93284.81
2023-03-21T20:21:43.410Z,93280.44
2023-03-21T20:24:16.848Z,93285.44
2023-03-21T20:26:45.184Z,93283.50
2023-03-21T20:30:05.743Z,93286.53
2023-03-21T20:31:59.842Z,93278.97
2023-03-21T20:34:28.415Z,93275.41
2023-03-21T20:36:56.051Z,93282.94
2023-03-21T20:39:24.742Z,93281.66
2023-03-21T20:41:54.730Z,93287.81
2023-03-21T20:44:57.366Z,93283.28
2023-03-21T20:47:09.010Z,93287.63
2023-03-21T20:49:36.011Z,93291.63
2023-03-21T20:54:57.447Z,93282.09
2023-03-21T20:57:27.589Z,93284.66
2023-03-21T20:59:55.196Z,93281.94
2023-03-21T21:02:22.554Z,93283.41
2023-03-21T21:05:21.596Z,93288.56
2023-03-21T21:07:36.968Z,93288.59
2023-03-21T21:10:10.084Z,93293.78
2023-03-21T21:12:39.359Z,93296.34
2023-03-21T21:15:08.334Z,93290.53
2023-03-21T21:20:23.042Z,93290.66
2023-03-21T21:23:00.232Z,93293.22
2023-03-21T21:25:30.668Z,93294.81
2023-03-21T21:27:58.070Z,93294.31
2023-03-21T21:30:25.363Z,93291.72
2023-03-21T21:32:52.346Z,93289.66
2023-03-21T21:35:20.681Z,93292.59
2023-03-21T21:37:47.693Z,93292.41
2023-03-21T21:40:18.975Z,93293.34
2023-03-21T21:42:47.357Z,93301.84
2023-03-21T21:45:14.369Z,93291.41
2023-03-21T21:47:43.600Z,93295.66
2023-03-21T21:50:11.148Z,93292.25
2023-03-21T21:52:38.269Z,93301.88
2023-03-21T21:55:06.600Z,93304.84
2023-03-21T21:57:34.843Z,93302.97
2023-03-21T22:00:07.038Z,93303.81
2023-03-21T22:02:41.027Z,93309.13
2023-03-21T22:05:09.125Z,93303.25
2023-03-21T22:07:37.524Z,93302.34
2023-03-21T22:10:05.627Z,93303.31
2023-03-21T22:12:32.616Z,93300.28
2023-03-21T22:14:59.674Z,93301.41
2023-03-21T22:17:28.107Z,93306.63
2023-03-21T22:20:05.118Z,93308.13
2023-03-21T22:22:33.275Z,93305.28
2023-03-21T22:25:00.210Z,93308.03
2023-03-21T22:27:27.256Z,93318.31
2023-03-21T22:29:54.160Z,93314.47
2023-03-21T22:32:21.382Z,93307.28
2023-03-21T22:34:49.806Z,93315.47
2023-03-21T22:37:16.663Z,93313.72
2023-03-21T22:39:43.526Z,93316.63
2023-03-21T22:42:10.578Z,93314.72
2023-03-21T22:44:37.745Z,93305.53
2023-03-21T22:47:07.197Z,93303.94
2023-03-21T22:49:34.292Z,93304.09
2023-03-21T22:52:03.436Z,93309.72
2023-03-21T22:54:30.554Z,93307.31
2023-03-21T22:56:57.545Z,93303.63
2023-03-21T22:59:24.547Z,93310.69
2023-03-21T23:01:51.615Z,93305.44
2023-03-21T23:04:19.320Z,93308.16
2023-03-21T23:06:46.456Z,93312.63
2023-03-21T23:09:15.040Z,93307.97
2023-03-21T23:11:43.117Z,93307.97
2023-03-21T23:14:10.200Z,93313.09
2023-03-21T23:16:38.531Z,93313.44
2023-03-21T23:19:06.210Z,93315.97
2023-03-21T23:21:34.636Z,93311.97
2023-03-21T23:24:01.604Z,93312.28
2023-03-21T23:26:30.048Z,93316.44
2023-03-21T23:28:56.994Z,93319.03
2023-03-21T23:31:25.678Z,93320.78
2023-03-21T23:33:53.357Z,93319.34
2023-03-21T23:36:21.275Z,93308.91
2023-03-21T23:38:48.517Z,93311.97
2023-03-21T23:41:17.578Z,93319.03
2023-03-21T23:43:46.780Z,93316.94
2023-03-21T23:46:14.925Z,93310.03
2023-03-21T23:48:42.546Z,93309.72
2023-03-21T23:51:09.563Z,93301.84
2023-03-21T23:53:37.603Z,93307.63
2023-03-21T23:56:10.816Z,93307.97
2023-03-21T23:58:37.825Z,93300.53
